首页
METAR-TAF:

METAR-TAF

机场 :

突尼斯-迦太基国际机场

突尼斯, 突尼斯

纬度: 36-50N, 经度: 010-14E, 海拔: 3米

当前天气观测

该预报发布于24分钟前的11:00 UTC
风速2节,风向多变
温度 17°C
湿度 72%
气压 1021 hPa
能見度: 8000
散云层高于2600英尺

METAR: DTTA 081100Z VRB02KT 8000 SCT026 17/12 Q1021

时间: 12:24 (11:24 UTC)

预报

该预报发布于6小时和24分钟前的05:00 UTC
预报有效从08日的 06点(UTC)到 09日的 06点(UTC)
风速6节,风向
能見度: 8000
少量云层高于2600英尺
短暂存在
从 08日的 10点(UTC)到 08日的 22点(UTC)
能見度: 4000
少量云层高于2300英尺, 塔状积云.
阵雨
成为
从 09日的 03点(UTC)到 09日的 05点(UTC)
风速16节,风向北转西北

TAF: DTTA 080500Z 0806/0906 17006KT 8000 FEW026 TEMPO 0810/0822 4000 SHRA FEW023TCU BECMG 0903/0905 33016KT

超过4000个机场的气象观测和天气预报(METAR&TAF报告)。

可查询的气象台以黄色和红色小点在地图上表示。

将鼠标移到小点上方,可查看气象台名称。

然后点击查看天气观测和预报。

如需切换地图:点击带黑十字的绿色按钮放大地图;点击带横线的绿色按钮缩小地图;或者点击绿色箭头查看邻近地区的地图。


METAR-TAF: